CheckWX is a tool to help pilots better visualize weather data.  It is not intended as a substitute for an official pre-flight weather briefing.

09:09:37 UTC

KMIV METAR
Millville Municipal Airport
Millville, New Jersey, USA
Current

16 mins ago

KMIV 090854Z AUTO 00000KT 1/4SM FG VV002 23/22 A2996 RMK AO2 SLP142 T02280222 51001
Observed
Jul-9 @ 08:54 UTC
Visibility
Flight Rules
LIFR
Conditions
Fog
Cloud Levels
  • Vertical visibility
Temperature
23°C / 73°F
Dewpoint
22°C / 72°F
Humidity
94%
Altimeter
29.96" Hg
Pressure
1014.52 hPa
Previous

33 mins ago

KMIV 090837Z AUTO 00000KT 1/4SM FG VV001 23/22 A2996 RMK AO2 T02280222
Observed
Jul-9 @ 08:37 UTC
Visibility
Flight Rules
LIFR
Conditions
Fog
Cloud Levels
  • Vertical visibility
Temperature
23°C / 73°F
Dewpoint
22°C / 72°F
Humidity
94%
Altimeter
29.96" Hg
Pressure
1014.52 hPa
Previous

42 mins ago

KMIV 090828Z AUTO 00000KT 1/4SM FG VV002 23/23 A2996 RMK AO2 T02280228
Observed
Jul-9 @ 08:28 UTC
Visibility
Flight Rules
LIFR
Conditions
Fog
Cloud Levels
  • Vertical visibility
Temperature
23°C / 73°F
Dewpoint
23°C / 73°F
Humidity
100%
Altimeter
29.96" Hg
Pressure
1014.52 hPa